createdAt,value
2019-03-30T00:00:51.378Z,15.05
2019-03-30T00:03:18.560Z,12.20
2019-03-30T00:05:45.373Z,13.37
2019-03-30T00:08:12.209Z,12.40
2019-03-30T00:10:38.996Z,13.62
2019-03-30T00:13:05.833Z,12.93
2019-03-30T00:15:32.668Z,13.10
2019-03-30T00:17:59.500Z,13.58
2019-03-30T00:20:26.337Z,12.60
2019-03-30T00:22:53.185Z,12.85
2019-03-30T00:25:19.964Z,12.58
2019-03-30T00:27:47.169Z,13.23
2019-03-30T00:30:14.126Z,12.43
2019-03-30T00:32:40.923Z,12.47
2019-03-30T00:35:07.866Z,11.40
2019-03-30T00:37:34.657Z,12.00
2019-03-30T00:40:01.549Z,12.50
2019-03-30T00:42:29.217Z,13.32
2019-03-30T00:44:56.080Z,13.22
2019-03-30T00:47:22.961Z,14.00
2019-03-30T00:49:50.261Z,13.58
2019-03-30T00:52:17.304Z,12.80
2019-03-30T00:54:44.099Z,14.03
2019-03-30T00:57:10.980Z,12.65
2019-03-30T00:59:37.765Z,11.85
2019-03-30T01:02:04.625Z,12.10
2019-03-30T01:04:31.521Z,11.15
2019-03-30T01:06:58.344Z,11.60
2019-03-30T01:09:25.189Z,12.40
2019-03-30T01:11:51.988Z,12.25
2019-03-30T01:14:19.524Z,12.45
2019-03-30T01:16:46.436Z,13.30
2019-03-30T01:19:13.284Z,11.28
2019-03-30T01:21:40.164Z,11.93
2019-03-30T01:24:07.000Z,10.40
2019-03-30T01:26:34.256Z,11.50
2019-03-30T01:29:01.089Z,11.87
2019-03-30T01:31:28.012Z,10.60
2019-03-30T01:33:54.880Z,11.53
2019-03-30T01:36:22.481Z,12.47
2019-03-30T01:38:49.364Z,10.63
2019-03-30T01:41:16.233Z,11.60
2019-03-30T01:43:43.019Z,12.00
2019-03-30T01:46:09.911Z,12.00
2019-03-30T01:48:36.769Z,11.65
2019-03-30T01:51:03.627Z,12.68
2019-03-30T01:53:30.526Z,13.05
2019-03-30T01:55:57.362Z,14.13
2019-03-30T01:58:24.280Z,13.10
2019-03-30T02:00:51.339Z,12.23
2019-03-30T02:03:18.226Z,12.75
2019-03-30T02:05:45.180Z,13.32
2019-03-30T02:08:12.017Z,13.18
2019-03-30T02:10:40.689Z,13.68
2019-03-30T02:13:07.745Z,13.50
2019-03-30T02:15:34.680Z,14.10
2019-03-30T02:18:01.679Z,13.25
2019-03-30T02:20:41.146Z,14.03
2019-03-30T02:23:08.148Z,14.60
2019-03-30T02:25:35.111Z,14.33
2019-03-30T02:28:02.182Z,13.23
2019-03-30T02:30:29.127Z,13.20
2019-03-30T02:32:56.202Z,12.30
2019-03-30T02:35:26.431Z,12.40
2019-03-30T02:37:51.891Z,12.37
2019-03-30T02:40:18.772Z,11.68
2019-03-30T02:42:45.666Z,10.30
2019-03-30T02:45:12.599Z,11.75
2019-03-30T02:47:39.490Z,12.75
2019-03-30T02:50:06.513Z,11.25
2019-03-30T02:52:53.032Z,12.25
2019-03-30T02:55:19.857Z,12.07
2019-03-30T02:57:46.648Z,13.50
2019-03-30T03:00:17.067Z,12.90
2019-03-30T03:02:43.815Z,13.03
2019-03-30T03:05:11.263Z,14.20
2019-03-30T03:07:38.041Z,14.47
2019-03-30T03:10:05.425Z,12.45
2019-03-30T03:12:32.273Z,12.90
2019-03-30T03:14:59.105Z,13.43
2019-03-30T03:17:25.895Z,13.28
2019-03-30T03:19:52.735Z,13.53
2019-03-30T03:22:19.586Z,14.35
2019-03-30T03:24:46.364Z,14.33
2019-03-30T03:27:13.201Z,14.28
2019-03-30T03:29:43.334Z,13.53
2019-03-30T03:32:08.638Z,13.58
2019-03-30T03:34:35.474Z,12.90
2019-03-30T03:37:02.253Z,12.85
2019-03-30T03:39:29.096Z,13.00
2019-03-30T03:41:55.874Z,13.62
2019-03-30T03:44:22.712Z,14.47
2019-03-30T03:46:49.554Z,14.10
2019-03-30T03:49:16.393Z,13.60
2019-03-30T03:51:43.170Z,14.38
2019-03-30T03:54:10.006Z,12.70
2019-03-30T03:56:38.302Z,12.45
2019-03-30T03:59:05.545Z,12.75
2019-03-30T04:01:34.030Z,13.20
2019-03-30T04:04:02.210Z,11.70
2019-03-30T04:06:31.657Z,10.80
2019-03-30T04:09:01.349Z,12.63
2019-03-30T04:11:30.237Z,12.35
2019-03-30T04:13:59.298Z,11.63
2019-03-30T04:16:26.109Z,11.12
2019-03-30T04:18:52.889Z,11.85
2019-03-30T04:21:19.772Z,11.85
2019-03-30T04:23:46.609Z,10.10
2019-03-30T04:26:13.690Z,10.95
2019-03-30T04:28:40.513Z,12.00
2019-03-30T04:31:07.365Z,11.65
2019-03-30T04:33:34.154Z,11.00
2019-03-30T04:36:00.989Z,12.40
2019-03-30T04:38:27.831Z,11.40
2019-03-30T04:40:57.953Z,11.80
2019-03-30T04:43:24.730Z,11.33
2019-03-30T04:45:51.579Z,11.38
2019-03-30T04:48:18.349Z,10.50
2019-03-30T04:50:45.184Z,10.03
2019-03-30T04:53:12.050Z,10.88
2019-03-30T04:55:38.837Z,11.15
2019-03-30T04:58:09.101Z,11.00
2019-03-30T05:00:34.448Z,11.85
2019-03-30T05:03:01.208Z,10.50
2019-03-30T05:05:28.049Z,12.00
2019-03-30T05:07:54.936Z,12.20
2019-03-30T05:10:21.772Z,11.48
2019-03-30T05:12:48.604Z,11.18
2019-03-30T05:15:15.388Z,10.97
2019-03-30T05:17:47.463Z,10.88
2019-03-30T05:20:11.912Z,10.45
2019-03-30T05:22:38.748Z,10.08
2019-03-30T05:25:05.749Z,11.03
2019-03-30T05:27:32.532Z,10.88
2019-03-30T05:29:59.316Z,11.60
2019-03-30T05:32:26.156Z,9.85
2019-03-30T05:34:52.932Z,10.43
2019-03-30T05:37:19.790Z,10.32
2019-03-30T05:39:46.548Z,9.20
2019-03-30T05:42:13.377Z,9.33
2019-03-30T05:44:40.163Z,8.93
2019-03-30T05:47:06.996Z,8.60
2019-03-30T05:49:33.829Z,9.50
2019-03-30T05:52:00.694Z,9.25
2019-03-30T05:54:27.561Z,9.10
2019-03-30T05:56:54.401Z,8.23
2019-03-30T05:59:21.178Z,8.00
2019-03-30T06:01:47.975Z,8.30
2019-03-30T06:04:14.821Z,8.40
2019-03-30T06:06:41.657Z,8.55
2019-03-30T06:09:08.488Z,8.55
2019-03-30T06:11:35.317Z,7.70
2019-03-30T06:14:02.152Z,8.55
2019-03-30T06:16:28.944Z,8.20
2019-03-30T06:18:55.780Z,8.30
2019-03-30T06:21:22.562Z,8.78
2019-03-30T06:23:49.392Z,9.08
2019-03-30T06:26:16.221Z,9.58
2019-03-30T06:28:43.057Z,8.50
2019-03-30T06:31:09.841Z,9.15
2019-03-30T06:33:36.684Z,8.95
2019-03-30T06:36:03.465Z,8.57
2019-03-30T06:38:30.318Z,8.68
2019-03-30T06:40:57.100Z,8.43
2019-03-30T06:43:23.985Z,8.60
2019-03-30T06:45:51.187Z,8.40
2019-03-30T06:48:17.977Z,7.00
2019-03-30T06:50:44.817Z,7.50
2019-03-30T06:53:11.656Z,7.65
2019-03-30T06:55:38.647Z,7.70
2019-03-30T06:58:05.413Z,7.67
2019-03-30T07:00:33.557Z,7.45
2019-03-30T07:03:03.096Z,8.35
2019-03-30T07:05:32.592Z,7.87
2019-03-30T07:08:00.333Z,7.08
2019-03-30T07:10:27.129Z,7.15
2019-03-30T07:12:54.860Z,7.20
2019-03-30T07:15:25.005Z,7.25
2019-03-30T07:17:55.393Z,7.40
2019-03-30T07:20:24.937Z,7.50
2019-03-30T07:22:51.731Z,7.60
2019-03-30T07:25:18.589Z,8.15
2019-03-30T07:27:45.377Z,7.55
2019-03-30T07:30:12.257Z,6.90
2019-03-30T07:32:39.104Z,7.20
2019-03-30T07:35:05.898Z,7.92
2019-03-30T07:37:32.756Z,8.00
2019-03-30T07:39:59.537Z,8.70
2019-03-30T07:42:26.368Z,7.97
2019-03-30T07:44:53.206Z,10.30
2019-03-30T07:47:20.045Z,10.30
2019-03-30T07:49:46.877Z,11.50
2019-03-30T07:52:13.665Z,12.10
2019-03-30T07:54:40.506Z,12.40
2019-03-30T07:57:16.536Z,11.80
2019-03-30T07:59:35.925Z,13.45
2019-03-30T08:02:02.711Z,13.75
2019-03-30T08:04:30.061Z,14.20
2019-03-30T08:06:56.892Z,14.70
2019-03-30T08:09:23.710Z,14.40
2019-03-30T08:11:50.552Z,14.60
2019-03-30T08:14:18.532Z,13.72
2019-03-30T08:16:45.328Z,14.20
2019-03-30T08:19:12.757Z,13.62
2019-03-30T08:21:39.532Z,13.83
2019-03-30T08:24:07.164Z,13.40
2019-03-30T08:26:35.582Z,14.40
2019-03-30T08:29:02.583Z,13.83
2019-03-30T08:31:29.412Z,13.45
2019-03-30T08:33:56.204Z,12.63
2019-03-30T08:36:23.108Z,13.70
2019-03-30T08:38:49.888Z,14.60
2019-03-30T08:41:16.729Z,15.10
2019-03-30T08:43:44.044Z,14.25
2019-03-30T08:46:10.901Z,15.28
2019-03-30T08:48:38.789Z,15.25
2019-03-30T08:51:05.720Z,14.30
2019-03-30T08:53:32.546Z,15.70
2019-03-30T08:55:59.397Z,16.00
2019-03-30T08:58:26.194Z,15.48
2019-03-30T09:00:53.034Z,14.75
2019-03-30T09:03:19.877Z,15.53
2019-03-30T09:05:47.468Z,15.47
2019-03-30T09:08:14.400Z,15.18
2019-03-30T09:10:41.255Z,15.28
2019-03-30T09:13:08.041Z,15.78
2019-03-30T09:15:34.833Z,14.40
2019-03-30T09:18:01.687Z,13.43
2019-03-30T09:20:28.464Z,14.40
2019-03-30T09:22:55.332Z,15.27
2019-03-30T09:25:22.165Z,14.63
2019-03-30T09:27:48.941Z,15.50
2019-03-30T09:30:15.779Z,15.30
2019-03-30T09:32:45.058Z,15.70
2019-03-30T09:35:11.292Z,14.73
2019-03-30T09:37:38.077Z,16.05
2019-03-30T09:40:06.640Z,15.55
2019-03-30T09:42:33.440Z,16.32
2019-03-30T09:45:00.388Z,15.20
2019-03-30T09:47:27.177Z,15.30
2019-03-30T09:49:53.965Z,15.00
2019-03-30T09:52:20.863Z,15.13
2019-03-30T09:54:47.660Z,15.03
2019-03-30T09:57:14.524Z,15.98
2019-03-30T09:59:41.465Z,14.85
2019-03-30T10:02:08.297Z,15.05
2019-03-30T10:04:35.141Z,14.78
2019-03-30T10:07:01.985Z,14.70
2019-03-30T10:09:28.869Z,15.10
2019-03-30T10:11:55.726Z,14.93
2019-03-30T10:14:22.565Z,14.85
2019-03-30T10:16:49.357Z,16.03
2019-03-30T10:19:16.197Z,14.87
2019-03-30T10:21:42.981Z,14.93
2019-03-30T10:24:10.230Z,14.70
2019-03-30T10:26:37.086Z,15.28
2019-03-30T10:29:03.916Z,14.77
2019-03-30T10:31:30.703Z,14.87
2019-03-30T10:33:57.544Z,14.95
2019-03-30T10:36:24.399Z,14.75
2019-03-30T10:38:51.176Z,14.20
2019-03-30T10:41:18.287Z,14.03
2019-03-30T10:43:45.200Z,14.40
2019-03-30T10:46:12.043Z,14.70
2019-03-30T10:48:38.839Z,15.50
2019-03-30T10:51:05.650Z,12.20
2019-03-30T10:53:32.496Z,14.28
2019-03-30T10:55:59.354Z,13.50
2019-03-30T10:58:26.148Z,14.55
2019-03-30T11:00:52.965Z,15.78
2019-03-30T11:03:19.813Z,15.05
2019-03-30T11:05:46.694Z,15.00
2019-03-30T11:08:13.481Z,13.07
2019-03-30T11:10:40.249Z,13.65
2019-03-30T11:13:07.097Z,15.28
2019-03-30T11:15:34.389Z,14.15
2019-03-30T11:18:01.393Z,14.10
2019-03-30T11:20:28.253Z,14.95
2019-03-30T11:22:55.093Z,14.38
2019-03-30T11:25:21.936Z,17.40
2019-03-30T11:27:48.726Z,16.02
2019-03-30T11:30:15.509Z,15.32
2019-03-30T11:32:42.358Z,13.88
2019-03-30T11:35:09.200Z,14.23
2019-03-30T11:37:36.055Z,14.53
2019-03-30T11:40:05.541Z,13.50
2019-03-30T11:42:32.342Z,13.58
2019-03-30T11:44:59.236Z,15.18
2019-03-30T11:47:26.072Z,14.15
2019-03-30T11:49:52.862Z,13.50
2019-03-30T11:52:19.695Z,14.40
2019-03-30T11:54:46.491Z,12.23
2019-03-30T11:57:13.388Z,11.38
2019-03-30T11:59:40.747Z,10.20
2019-03-30T12:02:07.580Z,11.50
2019-03-30T12:04:34.369Z,11.90
2019-03-30T12:07:01.210Z,13.77
2019-03-30T12:09:29.955Z,14.15
2019-03-30T12:11:56.797Z,13.60
2019-03-30T12:14:24.472Z,15.13
2019-03-30T12:16:51.313Z,14.50
2019-03-30T12:19:18.230Z,14.30
2019-03-30T12:21:45.085Z,14.58
2019-03-30T12:24:11.877Z,16.90
2019-03-30T12:26:38.724Z,15.95
2019-03-30T12:29:05.652Z,14.30
2019-03-30T12:31:32.504Z,15.40
2019-03-30T12:33:59.366Z,14.43
2019-03-30T12:36:26.164Z,14.55
2019-03-30T12:38:52.949Z,15.23
2019-03-30T12:41:19.796Z,14.70
2019-03-30T12:43:46.576Z,15.05
2019-03-30T12:46:13.412Z,16.05
2019-03-30T12:48:40.206Z,14.33
2019-03-30T12:51:07.054Z,14.10
2019-03-30T12:53:33.872Z,14.78
2019-03-30T12:56:00.726Z,16.32
2019-03-30T12:58:29.012Z,14.58
2019-03-30T13:00:55.806Z,15.23
2019-03-30T13:03:22.632Z,16.57
2019-03-30T13:05:49.841Z,17.80
2019-03-30T13:08:16.687Z,17.98
2019-03-30T13:10:45.406Z,16.75
2019-03-30T13:13:12.180Z,17.90
2019-03-30T13:15:38.993Z,18.42
2019-03-30T13:18:05.844Z,18.40
2019-03-30T13:20:32.638Z,17.05
2019-03-30T13:22:59.428Z,17.57
2019-03-30T13:25:26.264Z,17.20
2019-03-30T13:27:53.491Z,16.77
2019-03-30T13:30:21.084Z,17.20
2019-03-30T13:32:47.915Z,17.75
2019-03-30T13:35:14.710Z,15.90
2019-03-30T13:37:41.636Z,14.40
2019-03-30T13:40:09.397Z,16.93
2019-03-30T13:42:36.186Z,17.07
2019-03-30T13:45:04.949Z,19.12
2019-03-30T13:47:31.873Z,17.27
2019-03-30T13:49:58.788Z,16.95
2019-03-30T13:52:25.685Z,15.75
2019-03-30T13:54:52.517Z,16.73
2019-03-30T13:57:22.640Z,17.35
2019-03-30T13:59:49.435Z,17.43
2019-03-30T14:02:17.384Z,16.27
2019-03-30T14:04:44.223Z,14.75
2019-03-30T14:07:11.081Z,15.28
2019-03-30T14:09:37.913Z,16.40
2019-03-30T14:12:04.773Z,14.63
2019-03-30T14:14:32.157Z,14.03
2019-03-30T14:16:58.997Z,15.60
2019-03-30T14:19:25.840Z,17.05
2019-03-30T14:21:52.745Z,14.43
2019-03-30T14:24:19.983Z,16.43
2019-03-30T14:26:46.865Z,16.37
2019-03-30T14:29:13.644Z,17.82
2019-03-30T14:31:42.455Z,16.80
2019-03-30T14:34:09.297Z,17.95
2019-03-30T14:36:36.243Z,17.25
2019-03-30T14:39:05.683Z,17.87
2019-03-30T14:41:32.536Z,16.95
2019-03-30T14:43:59.308Z,18.15
2019-03-30T14:46:26.249Z,16.30
2019-03-30T14:48:53.051Z,16.20
2019-03-30T14:51:19.832Z,14.90
2019-03-30T14:53:46.685Z,17.77
2019-03-30T14:56:13.972Z,16.48
2019-03-30T14:58:40.827Z,15.90
2019-03-30T15:01:07.765Z,14.20
2019-03-30T15:03:34.669Z,14.33
2019-03-30T15:06:01.518Z,18.85
2019-03-30T15:08:28.453Z,17.23
2019-03-30T15:10:55.233Z,18.02
2019-03-30T15:13:22.073Z,17.87
2019-03-30T15:15:48.882Z,17.77
2019-03-30T15:18:15.716Z,15.05
2019-03-30T15:20:42.505Z,15.60
2019-03-30T15:23:09.392Z,16.42
2019-03-30T15:25:36.189Z,15.65
2019-03-30T15:28:03.027Z,15.72
2019-03-30T15:30:29.865Z,16.23
2019-03-30T15:32:56.649Z,14.63
2019-03-30T15:35:23.497Z,15.10
2019-03-30T15:37:50.326Z,13.05
2019-03-30T15:40:17.160Z,13.48
2019-03-30T15:42:43.944Z,14.28
2019-03-30T15:45:11.249Z,15.53
2019-03-30T15:47:38.132Z,17.05
2019-03-30T15:50:05.824Z,17.20
2019-03-30T15:52:32.668Z,17.90
2019-03-30T15:54:59.509Z,17.27
2019-03-30T15:57:26.301Z,17.90
2019-03-30T15:59:53.132Z,16.80
2019-03-30T16:02:20.421Z,15.35
2019-03-30T16:04:47.267Z,15.90
2019-03-30T16:07:14.066Z,16.50
2019-03-30T16:09:40.900Z,15.30
2019-03-30T16:12:07.728Z,16.57
2019-03-30T16:14:34.566Z,15.72
2019-03-30T16:17:01.349Z,16.07
2019-03-30T16:19:28.194Z,15.35
2019-03-30T16:21:55.036Z,16.30
2019-03-30T16:24:22.447Z,15.90
2019-03-30T16:26:49.918Z,16.07
2019-03-30T16:29:16.837Z,16.27
2019-03-30T16:31:43.618Z,16.07
2019-03-30T16:34:10.596Z,16.55
2019-03-30T16:36:37.377Z,15.70
2019-03-30T16:39:05.614Z,16.35
2019-03-30T16:41:32.448Z,15.50
2019-03-30T16:43:59.389Z,16.90
2019-03-30T16:46:26.163Z,15.40
2019-03-30T16:48:53.056Z,15.20
2019-03-30T16:51:19.908Z,14.18
2019-03-30T16:53:47.446Z,15.50
2019-03-30T16:56:14.372Z,13.90
2019-03-30T16:58:41.212Z,15.32
2019-03-30T17:01:07.997Z,14.33
2019-03-30T17:03:34.836Z,13.32
2019-03-30T17:06:01.673Z,12.93
2019-03-30T17:08:28.512Z,12.85
2019-03-30T17:10:55.297Z,13.68
2019-03-30T17:13:22.149Z,17.32
2019-03-30T17:15:48.939Z,14.50
2019-03-30T17:18:15.776Z,12.80
2019-03-30T17:20:42.562Z,12.82
2019-03-30T17:23:09.384Z,13.03
2019-03-30T17:25:36.220Z,13.67
2019-03-30T17:28:06.696Z,14.30
2019-03-30T17:30:31.888Z,13.43
2019-03-30T17:32:58.668Z,13.18
2019-03-30T17:35:25.517Z,13.35
2019-03-30T17:37:52.401Z,14.15
2019-03-30T17:40:19.188Z,13.80
2019-03-30T17:42:46.040Z,13.05
2019-03-30T17:45:13.162Z,15.75
2019-03-30T17:47:39.940Z,15.03
2019-03-30T17:50:07.229Z,16.30
2019-03-30T17:52:34.064Z,17.73
2019-03-30T17:55:00.902Z,15.23
2019-03-30T17:57:27.690Z,14.30
2019-03-30T17:59:54.516Z,15.20
2019-03-30T18:02:23.127Z,14.65
2019-03-30T18:04:49.945Z,14.73
2019-03-30T18:07:16.730Z,14.58
2019-03-30T18:09:43.567Z,13.65
2019-03-30T18:12:10.410Z,16.40
2019-03-30T18:14:37.753Z,18.98
2019-03-30T18:17:04.549Z,20.72
2019-03-30T18:19:31.388Z,17.05
2019-03-30T18:21:58.222Z,16.82
2019-03-30T18:24:25.368Z,16.70
2019-03-30T18:26:52.140Z,15.40
2019-03-30T18:29:18.997Z,14.87
2019-03-30T18:31:45.842Z,14.13
2019-03-30T18:34:13.036Z,15.60
2019-03-30T18:36:40.921Z,14.90
2019-03-30T18:39:09.743Z,15.38
2019-03-30T18:41:36.497Z,15.10
2019-03-30T18:44:03.285Z,15.80
2019-03-30T18:46:30.120Z,15.65
2019-03-30T18:48:57.169Z,14.07
2019-03-30T18:51:24.008Z,15.98
2019-03-30T18:53:51.648Z,14.98
2019-03-30T18:56:18.436Z,14.30
2019-03-30T18:58:45.277Z,15.03
2019-03-30T19:01:12.120Z,15.20
2019-03-30T19:03:38.953Z,15.05
2019-03-30T19:06:05.733Z,16.02
2019-03-30T19:08:34.558Z,15.40
2019-03-30T19:11:01.222Z,15.40
2019-03-30T19:13:28.010Z,16.80
2019-03-30T19:15:54.850Z,16.50
2019-03-30T19:18:21.640Z,16.07
2019-03-30T19:20:48.473Z,16.55
2019-03-30T19:23:15.408Z,16.57
2019-03-30T19:25:42.207Z,16.55
2019-03-30T19:28:09.057Z,15.78
2019-03-30T19:30:35.873Z,17.45
2019-03-30T19:33:03.048Z,17.50
2019-03-30T19:35:29.840Z,17.32
2019-03-30T19:37:56.681Z,17.67
2019-03-30T19:40:23.518Z,16.77
2019-03-30T19:42:50.348Z,16.48
2019-03-30T19:45:17.181Z,15.65
2019-03-30T19:47:44.018Z,17.48
2019-03-30T19:50:11.081Z,16.30
2019-03-30T19:52:39.968Z,16.75
2019-03-30T19:55:06.557Z,16.48
2019-03-30T19:57:33.545Z,15.48
2019-03-30T20:00:00.410Z,18.52
2019-03-30T20:02:27.244Z,17.12
2019-03-30T20:04:54.094Z,17.53
2019-03-30T20:07:20.972Z,15.93
2019-03-30T20:09:48.923Z,14.65
2019-03-30T20:12:15.742Z,15.65
2019-03-30T20:14:42.740Z,16.20
2019-03-30T20:17:09.577Z,21.12
2019-03-30T20:19:36.359Z,19.15
2019-03-30T20:22:03.185Z,18.80
2019-03-30T20:24:30.501Z,18.00
2019-03-30T20:26:57.325Z,14.83
2019-03-30T20:29:25.432Z,14.23
2019-03-30T20:31:52.700Z,14.18
2019-03-30T20:34:19.545Z,14.78
2019-03-30T20:36:46.344Z,13.75
2019-03-30T20:39:13.189Z,15.32
2019-03-30T20:41:40.364Z,16.12
2019-03-30T20:44:07.149Z,15.15
2019-03-30T20:46:34.004Z,15.75
2019-03-30T20:49:00.892Z,14.37
2019-03-30T20:51:28.116Z,14.43
2019-03-30T20:53:54.910Z,15.48
2019-03-30T20:56:21.740Z,15.57
2019-03-30T20:58:48.537Z,16.80
2019-03-30T21:01:15.389Z,18.77
2019-03-30T21:03:42.168Z,17.12
2019-03-30T21:06:08.960Z,19.05
2019-03-30T21:08:35.796Z,19.02
2019-03-30T21:11:02.577Z,16.67
2019-03-30T21:13:30.857Z,14.35
2019-03-30T21:15:57.883Z,14.38
2019-03-30T21:18:24.784Z,14.60
2019-03-30T21:20:51.745Z,15.08
2019-03-30T21:23:18.690Z,14.85
2019-03-30T21:25:45.713Z,14.33
2019-03-30T21:28:12.719Z,13.43
2019-03-30T21:30:40.108Z,14.47
2019-03-30T21:33:07.020Z,13.70
2019-03-30T21:35:34.009Z,13.80
2019-03-30T21:38:01.014Z,14.55
2019-03-30T21:40:29.014Z,11.60
2019-03-30T21:42:55.949Z,12.53
2019-03-30T21:45:22.922Z,14.30
2019-03-30T21:47:49.860Z,13.30
2019-03-30T21:50:16.710Z,13.05
2019-03-30T21:52:43.561Z,15.03
2019-03-30T21:55:10.513Z,13.88
2019-03-30T21:57:37.307Z,13.88
2019-03-30T22:00:10.598Z,12.78
2019-03-30T22:02:35.243Z,13.70
2019-03-30T22:05:02.480Z,12.43
2019-03-30T22:07:29.373Z,11.60
2019-03-30T22:09:57.025Z,12.23
2019-03-30T22:12:23.813Z,13.32
2019-03-30T22:14:50.650Z,13.30
2019-03-30T22:17:17.505Z,11.12
2019-03-30T22:19:44.297Z,10.93
2019-03-30T22:22:11.088Z,10.93
2019-03-30T22:24:37.925Z,11.03
2019-03-30T22:27:04.774Z,11.40
2019-03-30T22:29:31.743Z,11.50
2019-03-30T22:31:58.938Z,11.15
2019-03-30T22:34:25.925Z,11.10
2019-03-30T22:36:52.689Z,11.10
2019-03-30T22:39:19.574Z,10.88
2019-03-30T22:41:46.705Z,11.60
2019-03-30T22:44:13.537Z,11.80
2019-03-30T22:46:40.376Z,10.20
2019-03-30T22:49:07.209Z,10.03
2019-03-30T22:51:33.992Z,11.12
2019-03-30T22:54:00.778Z,11.80
2019-03-30T22:56:27.614Z,13.43
2019-03-30T22:58:54.404Z,12.23
2019-03-30T23:01:22.450Z,11.50
2019-03-30T23:03:49.338Z,10.53
2019-03-30T23:06:16.181Z,12.00
2019-03-30T23:08:42.962Z,11.08
2019-03-30T23:11:09.800Z,10.63
2019-03-30T23:13:36.591Z,11.15
2019-03-30T23:16:04.368Z,11.13
2019-03-30T23:18:31.205Z,11.20
2019-03-30T23:20:57.993Z,12.10
2019-03-30T23:23:24.848Z,13.03
2019-03-30T23:25:51.673Z,12.00
2019-03-30T23:28:18.461Z,12.18
2019-03-30T23:30:54.228Z,10.48
2019-03-30T23:33:13.929Z,12.00
2019-03-30T23:35:40.757Z,11.00
2019-03-30T23:38:07.595Z,11.10
2019-03-30T23:40:34.373Z,11.05
2019-03-30T23:43:01.225Z,12.30
2019-03-30T23:45:28.021Z,11.00
2019-03-30T23:47:54.856Z,11.30
2019-03-30T23:50:21.693Z,11.85
2019-03-30T23:52:48.537Z,11.03
2019-03-30T23:55:15.325Z,10.88
2019-03-30T23:57:42.109Z,11.10
